Terminal Aerodrome Forecast
Issued by NWS

Home | Current Version | Previous Version | Text Only | Print | Product List | Glossary On
Versions: 1 2 3 4 5 6 7 8 9 10 11 12 13
000
FTAK31 PAFA 291740
TAFAQT
TAF
PAQT 291740Z 2918/3018 08017G27KT P6SM OVC008
     FM292200 08014KT P6SM -SHRASN OVC008
     FM300400 12009KT 4SM -SHSN BR OVC006 PROB30 3004/3010 -FZRA
     FM301000 18006KT 2SM -SHSN BR OVC006 PROB30 3010/3016 -FZRA
     FM301600 25006KT 5SM -SHSNRA BR OVC006=

USA.gov is the U.S. government's official web portal to all federal, state and local government web resources and services.